sensor_id;sensor_type;location;lat;lon;timestamp;P1;durP1;ratioP1;P2;durP2;ratioP2
28068;SDS011;15382;47.578;8.086;2023-02-01T00:03:44;13.20;;;5.00;;
28068;SDS011;15382;47.578;8.086;2023-02-01T00:13:44;9.02;;;4.80;;
28068;SDS011;15382;47.578;8.086;2023-02-01T00:23:46;8.05;;;4.47;;
28068;SDS011;15382;47.578;8.086;2023-02-01T00:33:47;9.90;;;4.43;;
28068;SDS011;15382;47.578;8.086;2023-02-01T00:43:49;9.13;;;3.78;;
28068;SDS011;15382;47.578;8.086;2023-02-01T00:53:50;9.32;;;3.90;;
28068;SDS011;15382;47.578;8.086;2023-02-01T01:03:52;10.70;;;4.38;;
28068;SDS011;15382;47.578;8.086;2023-02-01T01:13:56;7.50;;;4.05;;
28068;SDS011;15382;47.578;8.086;2023-02-01T01:23:58;8.68;;;4.47;;
28068;SDS011;15382;47.578;8.086;2023-02-01T01:33:59;8.10;;;4.03;;
28068;SDS011;15382;47.578;8.086;2023-02-01T01:44:03;6.82;;;4.30;;
28068;SDS011;15382;47.578;8.086;2023-02-01T01:54:09;7.40;;;3.80;;
28068;SDS011;15382;47.578;8.086;2023-02-01T02:04:16;8.90;;;4.03;;
28068;SDS011;15382;47.578;8.086;2023-02-01T02:14:17;9.60;;;3.83;;
28068;SDS011;15382;47.578;8.086;2023-02-01T02:24:43;8.57;;;4.05;;
28068;SDS011;15382;47.578;8.086;2023-02-01T02:34:53;9.48;;;4.68;;
28068;SDS011;15382;47.578;8.086;2023-02-01T02:55:21;6.85;;;3.95;;
28068;SDS011;15382;47.578;8.086;2023-02-01T03:05:23;9.98;;;4.50;;
28068;SDS011;15382;47.578;8.086;2023-02-01T03:15:27;11.23;;;4.22;;
28068;SDS011;15382;47.578;8.086;2023-02-01T03:25:43;9.18;;;4.28;;
28068;SDS011;15382;47.578;8.086;2023-02-01T03:35:56;12.52;;;5.03;;
28068;SDS011;15382;47.578;8.086;2023-02-01T03:46:12;9.00;;;4.43;;
28068;SDS011;15382;47.578;8.086;2023-02-01T03:56:19;7.85;;;4.15;;
28068;SDS011;15382;47.578;8.086;2023-02-01T04:06:23;11.05;;;4.82;;
28068;SDS011;15382;47.578;8.086;2023-02-01T04:16:26;14.43;;;5.00;;
28068;SDS011;15382;47.578;8.086;2023-02-01T04:26:27;10.02;;;5.45;;
28068;SDS011;15382;47.578;8.086;2023-02-01T04:36:28;11.45;;;5.15;;
28068;SDS011;15382;47.578;8.086;2023-02-01T04:46:28;13.38;;;4.95;;
28068;SDS011;15382;47.578;8.086;2023-02-01T04:56:29;11.70;;;5.22;;
28068;SDS011;15382;47.578;8.086;2023-02-01T05:06:30;10.13;;;4.82;;
28068;SDS011;15382;47.578;8.086;2023-02-01T05:16:31;8.95;;;5.25;;
28068;SDS011;15382;47.578;8.086;2023-02-01T05:26:32;11.00;;;5.18;;
28068;SDS011;15382;47.578;8.086;2023-02-01T05:36:33;12.85;;;5.68;;
28068;SDS011;15382;47.578;8.086;2023-02-01T05:46:34;11.02;;;5.47;;
28068;SDS011;15382;47.578;8.086;2023-02-01T05:56:35;9.68;;;5.15;;
28068;SDS011;15382;47.578;8.086;2023-02-01T06:06:36;13.18;;;6.32;;
28068;SDS011;15382;47.578;8.086;2023-02-01T06:16:37;7.97;;;4.32;;
28068;SDS011;15382;47.578;8.086;2023-02-01T06:26:37;13.15;;;5.10;;
28068;SDS011;15382;47.578;8.086;2023-02-01T06:36:40;15.32;;;4.80;;
28068;SDS011;15382;47.578;8.086;2023-02-01T06:46:40;11.82;;;5.45;;
28068;SDS011;15382;47.578;8.086;2023-02-01T06:56:41;12.80;;;5.57;;
28068;SDS011;15382;47.578;8.086;2023-02-01T07:06:42;12.50;;;6.13;;
28068;SDS011;15382;47.578;8.086;2023-02-01T07:16:43;10.60;;;4.93;;
28068;SDS011;15382;47.578;8.086;2023-02-01T07:26:43;11.43;;;5.43;;
28068;SDS011;15382;47.578;8.086;2023-02-01T07:36:44;11.23;;;6.32;;
28068;SDS011;15382;47.578;8.086;2023-02-01T07:46:45;16.73;;;5.63;;
28068;SDS011;15382;47.578;8.086;2023-02-01T07:56:46;9.77;;;4.80;;
28068;SDS011;15382;47.578;8.086;2023-02-01T08:06:47;12.07;;;4.47;;
28068;SDS011;15382;47.578;8.086;2023-02-01T08:16:47;11.95;;;4.13;;
28068;SDS011;15382;47.578;8.086;2023-02-01T08:26:48;5.85;;;3.38;;
28068;SDS011;15382;47.578;8.086;2023-02-01T08:36:49;6.10;;;3.72;;
28068;SDS011;15382;47.578;8.086;2023-02-01T08:46:52;5.78;;;3.45;;
28068;SDS011;15382;47.578;8.086;2023-02-01T08:56:52;8.73;;;3.78;;
28068;SDS011;15382;47.578;8.086;2023-02-01T09:06:54;8.80;;;3.70;;
28068;SDS011;15382;47.578;8.086;2023-02-01T09:16:55;5.38;;;2.88;;
28068;SDS011;15382;47.578;8.086;2023-02-01T09:26:56;4.13;;;2.60;;
28068;SDS011;15382;47.578;8.086;2023-02-01T09:36:57;6.60;;;3.17;;
28068;SDS011;15382;47.578;8.086;2023-02-01T09:46:58;5.03;;;2.38;;
28068;SDS011;15382;47.578;8.086;2023-02-01T09:57:05;4.40;;;2.45;;
28068;SDS011;15382;47.578;8.086;2023-02-01T10:27:35;3.22;;;1.77;;
28068;SDS011;15382;47.578;8.086;2023-02-01T10:37:39;6.85;;;2.25;;
28068;SDS011;15382;47.578;8.086;2023-02-01T10:47:42;7.82;;;1.88;;
28068;SDS011;15382;47.578;8.086;2023-02-01T10:57:48;7.00;;;1.90;;
28068;SDS011;15382;47.578;8.086;2023-02-01T11:07:56;8.15;;;2.67;;
28068;SDS011;15382;47.578;8.086;2023-02-01T11:18:12;8.07;;;2.50;;
28068;SDS011;15382;47.578;8.086;2023-02-01T11:28:19;3.97;;;2.28;;
28068;SDS011;15382;47.578;8.086;2023-02-01T11:38:30;5.78;;;2.33;;
28068;SDS011;15382;47.578;8.086;2023-02-01T11:48:32;9.27;;;2.67;;
28068;SDS011;15382;47.578;8.086;2023-02-01T12:50:21;7.67;;;3.37;;
28068;SDS011;15382;47.578;8.086;2023-02-01T13:00:52;12.15;;;3.47;;
28068;SDS011;15382;47.578;8.086;2023-02-01T13:21:48;9.97;;;2.73;;
28068;SDS011;15382;47.578;8.086;2023-02-01T13:42:26;10.25;;;3.10;;
28068;SDS011;15382;47.578;8.086;2023-02-01T13:52:37;10.52;;;2.90;;
28068;SDS011;15382;47.578;8.086;2023-02-01T14:22:43;13.27;;;3.17;;
28068;SDS011;15382;47.578;8.086;2023-02-01T14:32:45;10.35;;;3.22;;
28068;SDS011;15382;47.578;8.086;2023-02-01T14:42:48;19.13;;;3.10;;
28068;SDS011;15382;47.578;8.086;2023-02-01T14:52:58;18.75;;;3.03;;
28068;SDS011;15382;47.578;8.086;2023-02-01T15:03:15;9.85;;;3.67;;
28068;SDS011;15382;47.578;8.086;2023-02-01T15:13:21;13.50;;;3.42;;
28068;SDS011;15382;47.578;8.086;2023-02-01T15:23:26;17.40;;;3.58;;
28068;SDS011;15382;47.578;8.086;2023-02-01T15:33:28;12.70;;;4.45;;
28068;SDS011;15382;47.578;8.086;2023-02-01T15:43:31;11.20;;;3.20;;
28068;SDS011;15382;47.578;8.086;2023-02-01T15:53:37;16.20;;;3.15;;
28068;SDS011;15382;47.578;8.086;2023-02-01T16:03:39;14.65;;;5.00;;
28068;SDS011;15382;47.578;8.086;2023-02-01T16:13:41;11.52;;;2.78;;
28068;SDS011;15382;47.578;8.086;2023-02-01T16:23:42;11.55;;;3.33;;
28068;SDS011;15382;47.578;8.086;2023-02-01T16:33:51;13.68;;;3.35;;
28068;SDS011;15382;47.578;8.086;2023-02-01T16:43:53;8.73;;;2.55;;
28068;SDS011;15382;47.578;8.086;2023-02-01T16:53:54;13.23;;;2.45;;
28068;SDS011;15382;47.578;8.086;2023-02-01T17:03:55;19.17;;;2.88;;
28068;SDS011;15382;47.578;8.086;2023-02-01T17:14:00;15.43;;;3.60;;
28068;SDS011;15382;47.578;8.086;2023-02-01T17:24:14;15.30;;;2.53;;
28068;SDS011;15382;47.578;8.086;2023-02-01T17:34:16;12.00;;;2.65;;
28068;SDS011;15382;47.578;8.086;2023-02-01T17:44:18;11.65;;;2.75;;
28068;SDS011;15382;47.578;8.086;2023-02-01T18:04:19;11.73;;;2.78;;
28068;SDS011;15382;47.578;8.086;2023-02-01T18:14:21;16.55;;;2.35;;
28068;SDS011;15382;47.578;8.086;2023-02-01T18:24:22;7.30;;;2.90;;
28068;SDS011;15382;47.578;8.086;2023-02-01T18:34:24;19.98;;;3.60;;
28068;SDS011;15382;47.578;8.086;2023-02-01T18:44:26;9.00;;;2.67;;
28068;SDS011;15382;47.578;8.086;2023-02-01T18:54:27;11.30;;;2.63;;
28068;SDS011;15382;47.578;8.086;2023-02-01T19:04:27;6.90;;;1.90;;
28068;SDS011;15382;47.578;8.086;2023-02-01T19:14:29;8.23;;;2.55;;
28068;SDS011;15382;47.578;8.086;2023-02-01T19:34:31;14.77;;;2.58;;
28068;SDS011;15382;47.578;8.086;2023-02-01T19:44:33;16.35;;;2.90;;
28068;SDS011;15382;47.578;8.086;2023-02-01T19:54:34;11.40;;;2.90;;
28068;SDS011;15382;47.578;8.086;2023-02-01T20:14:36;16.10;;;2.40;;
28068;SDS011;15382;47.578;8.086;2023-02-01T20:24:38;15.05;;;2.13;;
28068;SDS011;15382;47.578;8.086;2023-02-01T20:34:40;11.52;;;2.92;;
28068;SDS011;15382;47.578;8.086;2023-02-01T20:54:41;30.57;;;4.67;;
28068;SDS011;15382;47.578;8.086;2023-02-01T21:04:42;13.02;;;2.72;;
28068;SDS011;15382;47.578;8.086;2023-02-01T21:24:44;13.77;;;2.77;;
28068;SDS011;15382;47.578;8.086;2023-02-01T21:34:45;10.35;;;2.25;;
28068;SDS011;15382;47.578;8.086;2023-02-01T21:44:46;9.77;;;2.50;;
28068;SDS011;15382;47.578;8.086;2023-02-01T21:54:47;6.70;;;2.45;;
28068;SDS011;15382;47.578;8.086;2023-02-01T22:04:50;12.25;;;2.58;;
28068;SDS011;15382;47.578;8.086;2023-02-01T22:14:50;15.38;;;2.47;;
28068;SDS011;15382;47.578;8.086;2023-02-01T22:24:51;14.85;;;2.47;;
28068;SDS011;15382;47.578;8.086;2023-02-01T22:34:53;10.02;;;2.33;;
28068;SDS011;15382;47.578;8.086;2023-02-01T22:44:55;9.25;;;2.63;;
28068;SDS011;15382;47.578;8.086;2023-02-01T22:54:56;7.15;;;1.88;;
28068;SDS011;15382;47.578;8.086;2023-02-01T23:14:57;19.30;;;2.65;;
28068;SDS011;15382;47.578;8.086;2023-02-01T23:25:05;13.52;;;2.28;;
28068;SDS011;15382;47.578;8.086;2023-02-01T23:35:06;9.60;;;2.50;;
28068;SDS011;15382;47.578;8.086;2023-02-01T23:45:07;12.70;;;2.40;;
28068;SDS011;15382;47.578;8.086;2023-02-01T23:55:08;15.20;;;2.42;;
